createdAt,value
2023-04-26T00:02:18.639Z,71.30
2023-04-26T00:04:47.202Z,71.40
2023-04-26T00:07:15.809Z,71.20
2023-04-26T00:09:44.320Z,71.40
2023-04-26T00:12:11.937Z,71.40
2023-04-26T00:14:38.757Z,71.60
2023-04-26T00:17:05.432Z,71.70
2023-04-26T00:19:32.185Z,71.80
2023-04-26T00:21:58.917Z,71.40
2023-04-26T00:24:25.779Z,71.50
2023-04-26T00:26:56.047Z,71.40
2023-04-26T00:29:22.747Z,71.70
2023-04-26T00:31:49.610Z,71.80
2023-04-26T00:34:16.564Z,71.90
2023-04-26T00:36:43.248Z,72.10
2023-04-26T00:39:10.472Z,72.10
2023-04-26T00:41:37.186Z,72.10
2023-04-26T00:44:04.034Z,71.90
2023-04-26T00:46:31.491Z,72.00
2023-04-26T00:48:58.272Z,71.90
2023-04-26T00:51:24.959Z,71.90
2023-04-26T00:53:51.753Z,71.60
2023-04-26T00:56:18.958Z,71.60
2023-04-26T00:58:46.219Z,72.10
2023-04-26T01:01:13.343Z,72.30
2023-04-26T01:03:40.556Z,72.20
2023-04-26T01:06:07.522Z,72.00
2023-04-26T01:08:34.402Z,72.20
2023-04-26T01:11:01.396Z,72.10
2023-04-26T01:13:29.571Z,72.50
2023-04-26T01:15:57.166Z,72.80
2023-04-26T01:18:23.926Z,72.80
2023-04-26T01:20:52.924Z,73.00
2023-04-26T01:23:19.550Z,73.10
2023-04-26T01:25:46.194Z,73.30
2023-04-26T01:28:13.060Z,73.50
2023-04-26T01:30:39.774Z,74.00
2023-04-26T01:33:06.537Z,74.40
2023-04-26T01:35:33.620Z,74.30
2023-04-26T01:38:00.275Z,74.00
2023-04-26T01:40:26.992Z,73.80
2023-04-26T01:42:53.611Z,73.70
2023-04-26T01:45:20.475Z,73.60
2023-04-26T01:47:47.145Z,73.50
2023-04-26T01:50:13.842Z,73.40
2023-04-26T01:52:40.556Z,73.40
2023-04-26T01:55:07.918Z,73.40
2023-04-26T01:57:34.774Z,73.50
2023-04-26T02:00:02.542Z,73.80
2023-04-26T02:02:29.350Z,73.70
2023-04-26T02:04:56.134Z,74.00
2023-04-26T02:07:22.891Z,73.70
2023-04-26T02:09:49.969Z,73.80
2023-04-26T02:12:16.928Z,74.10
2023-04-26T02:14:43.689Z,73.90
2023-04-26T02:17:11.135Z,73.80
2023-04-26T02:19:38.026Z,73.80
2023-04-26T02:22:06.318Z,73.90
2023-04-26T02:24:33.536Z,74.00
2023-04-26T02:27:03.478Z,74.00
2023-04-26T02:29:43.651Z,73.70
2023-04-26T02:32:11.479Z,73.50
2023-04-26T02:34:38.078Z,73.70
2023-04-26T02:37:04.716Z,73.50
2023-04-26T02:39:31.551Z,73.50
2023-04-26T02:41:58.184Z,73.70
2023-04-26T02:44:24.998Z,73.60
2023-04-26T02:46:51.812Z,73.60
2023-04-26T02:49:18.440Z,73.90
2023-04-26T02:51:45.056Z,74.00
2023-04-26T02:54:11.801Z,74.20
2023-04-26T02:56:38.451Z,73.60
2023-04-26T02:59:05.093Z,73.90
2023-04-26T03:01:31.813Z,74.10
2023-04-26T03:03:58.683Z,74.00
2023-04-26T03:06:25.388Z,74.20
2023-04-26T03:08:52.215Z,74.60
2023-04-26T03:11:19.142Z,74.50
2023-04-26T03:13:45.778Z,74.80
2023-04-26T03:16:12.519Z,74.70
2023-04-26T03:18:39.208Z,74.70
2023-04-26T03:21:06.026Z,74.80
2023-04-26T03:23:32.710Z,74.70
2023-04-26T03:25:59.415Z,74.50
2023-04-26T03:28:26.078Z,74.40
2023-04-26T03:30:52.767Z,74.60
2023-04-26T03:33:19.478Z,74.40
2023-04-26T03:35:46.156Z,74.10
2023-04-26T03:38:12.851Z,74.10
2023-04-26T03:40:39.473Z,74.10
2023-04-26T03:43:06.093Z,74.50
2023-04-26T03:45:32.801Z,74.60
2023-04-26T03:47:59.687Z,74.60
2023-04-26T03:50:26.464Z,74.60
2023-04-26T03:52:53.120Z,74.50
2023-04-26T03:55:19.831Z,74.50
2023-04-26T03:57:46.501Z,74.40
2023-04-26T04:00:14.334Z,74.30
2023-04-26T04:02:42.082Z,74.00
2023-04-26T04:05:09.465Z,74.00
2023-04-26T04:07:36.202Z,74.30
2023-04-26T04:10:03.225Z,74.50
2023-04-26T04:12:29.912Z,74.70
2023-04-26T04:14:56.583Z,74.70
2023-04-26T04:17:23.397Z,74.50
2023-04-26T04:19:50.082Z,74.70
2023-04-26T04:22:16.734Z,74.60
2023-04-26T04:24:44.259Z,74.50
2023-04-26T04:27:11.516Z,74.60
2023-04-26T04:29:38.342Z,74.40
2023-04-26T04:32:05.360Z,74.10
2023-04-26T04:34:36.009Z,74.80
2023-04-26T04:37:04.220Z,75.10
2023-04-26T04:39:31.261Z,75.30
2023-04-26T04:41:58.382Z,75.00
2023-04-26T04:44:26.827Z,74.80
2023-04-26T04:46:53.567Z,74.90
2023-04-26T04:49:20.822Z,75.00
2023-04-26T04:51:47.905Z,75.00
2023-04-26T04:54:16.866Z,75.20
2023-04-26T04:56:44.590Z,75.20
2023-04-26T04:59:12.018Z,75.50
2023-04-26T05:01:38.783Z,75.50
2023-04-26T05:04:06.838Z,75.50
2023-04-26T05:06:33.831Z,75.50
2023-04-26T05:09:01.484Z,75.50
2023-04-26T05:11:28.287Z,75.40
2023-04-26T05:13:55.107Z,75.40
2023-04-26T05:16:21.923Z,75.40
2023-04-26T05:18:48.659Z,75.80
2023-04-26T05:21:15.793Z,76.30
2023-04-26T05:23:42.651Z,75.70
2023-04-26T05:26:13.443Z,75.30
2023-04-26T05:28:40.154Z,75.10
2023-04-26T05:31:08.812Z,74.60
2023-04-26T05:33:36.658Z,74.10
2023-04-26T05:36:04.102Z,73.70
2023-04-26T05:38:30.775Z,72.90
2023-04-26T05:40:57.378Z,72.50
2023-04-26T05:43:24.045Z,72.20
2023-04-26T05:45:55.680Z,73.20
2023-04-26T05:48:23.594Z,72.10
2023-04-26T05:50:51.217Z,71.90
2023-04-26T05:53:19.155Z,71.70
2023-04-26T05:55:45.906Z,71.70
2023-04-26T05:58:12.525Z,70.90
2023-04-26T06:00:39.490Z,70.90
2023-04-26T06:03:06.348Z,70.70
2023-04-26T06:05:33.396Z,69.80
2023-04-26T06:08:01.453Z,68.20
2023-04-26T06:10:28.250Z,67.50
2023-04-26T06:12:54.886Z,68.00
2023-04-26T06:15:21.654Z,67.60
2023-04-26T06:17:48.440Z,67.50
2023-04-26T06:20:15.068Z,67.50
2023-04-26T06:22:41.871Z,67.80
2023-04-26T06:25:09.233Z,68.10
2023-04-26T06:27:35.882Z,68.80
2023-04-26T06:30:02.577Z,69.20
2023-04-26T06:32:29.316Z,69.70
2023-04-26T06:34:56.063Z,70.00
2023-04-26T06:37:22.683Z,70.80
2023-04-26T06:39:49.338Z,71.00
2023-04-26T06:42:16.627Z,70.70
2023-04-26T06:44:43.224Z,70.30
2023-04-26T06:47:11.181Z,69.70
2023-04-26T06:49:38.795Z,68.90
2023-04-26T06:52:08.235Z,69.20
2023-04-26T06:54:39.908Z,69.30
2023-04-26T06:57:09.563Z,68.60
2023-04-26T06:59:36.639Z,69.00
2023-04-26T07:02:03.334Z,69.10
2023-04-26T07:04:30.093Z,69.30
2023-04-26T07:06:57.838Z,68.20
2023-04-26T07:09:24.513Z,68.70
2023-04-26T07:11:51.143Z,68.60
2023-04-26T07:14:18.089Z,68.60
2023-04-26T07:16:44.891Z,67.70
2023-04-26T07:19:11.710Z,68.30
2023-04-26T07:21:38.337Z,68.80
2023-04-26T07:24:05.472Z,65.60
2023-04-26T07:26:32.217Z,67.00
2023-04-26T07:28:59.897Z,67.50
2023-04-26T07:31:26.566Z,66.60
2023-04-26T07:33:53.364Z,66.60
2023-04-26T07:36:21.079Z,66.30
2023-04-26T07:38:49.108Z,66.00
2023-04-26T07:41:17.563Z,66.00
2023-04-26T07:43:44.259Z,65.30
2023-04-26T07:46:10.908Z,65.10
2023-04-26T07:48:37.636Z,64.00
2023-04-26T07:51:11.727Z,63.80
2023-04-26T07:53:39.297Z,63.30
2023-04-26T07:56:10.049Z,63.20
2023-04-26T07:58:38.922Z,63.20
2023-04-26T08:01:06.095Z,61.40
2023-04-26T08:03:33.321Z,62.10
2023-04-26T08:06:00.540Z,61.50
2023-04-26T08:08:27.571Z,62.30
2023-04-26T08:10:55.618Z,60.60
2023-04-26T08:13:22.640Z,61.60
2023-04-26T08:15:49.362Z,62.30
2023-04-26T08:18:16.030Z,62.50
2023-04-26T08:20:42.879Z,61.80
2023-04-26T08:23:09.666Z,62.10
2023-04-26T08:25:36.321Z,62.30
2023-04-26T08:28:03.152Z,62.40
2023-04-26T08:30:29.854Z,63.20
2023-04-26T08:32:56.885Z,63.30
2023-04-26T08:35:23.607Z,62.80
2023-04-26T08:37:50.880Z,63.10
2023-04-26T08:40:24.656Z,63.80
2023-04-26T08:42:52.697Z,63.40
2023-04-26T08:45:20.590Z,63.90
2023-04-26T08:47:53.405Z,63.90
2023-04-26T08:50:23.174Z,63.70
2023-04-26T08:52:51.614Z,63.00
2023-04-26T08:55:20.271Z,63.70
2023-04-26T08:57:48.576Z,62.60
2023-04-26T09:00:17.025Z,63.10
2023-04-26T09:02:49.129Z,63.40
2023-04-26T09:05:16.099Z,63.00
2023-04-26T09:07:46.051Z,60.80
2023-04-26T09:10:16.928Z,62.40
2023-04-26T09:12:43.644Z,62.50
2023-04-26T09:15:10.869Z,63.40
2023-04-26T09:17:39.078Z,62.50
2023-04-26T09:20:24.326Z,62.50
2023-04-26T09:22:53.754Z,60.80
2023-04-26T09:25:29.729Z,61.40
2023-04-26T09:27:57.129Z,56.70
2023-04-26T09:30:24.112Z,56.00
2023-04-26T09:33:03.391Z,56.00
2023-04-26T09:35:37.525Z,58.50
2023-04-26T09:38:10.479Z,57.10
2023-04-26T09:40:49.248Z,57.00
2023-04-26T09:43:16.757Z,55.80
2023-04-26T09:45:51.420Z,52.30
2023-04-26T09:48:22.837Z,53.30
2023-04-26T09:50:52.803Z,53.50
2023-04-26T09:53:40.644Z,54.40
2023-04-26T09:56:14.173Z,52.60
2023-04-26T09:58:59.318Z,53.90
2023-04-26T10:01:30.374Z,54.30
2023-04-26T10:03:58.310Z,54.30
2023-04-26T10:06:25.731Z,54.50
2023-04-26T10:08:52.614Z,54.20
2023-04-26T10:11:21.741Z,54.20
2023-04-26T10:13:50.492Z,55.40
2023-04-26T10:16:17.504Z,55.40
2023-04-26T10:18:44.128Z,55.20
2023-04-26T10:21:35.174Z,55.10
2023-04-26T10:24:02.882Z,55.00
2023-04-26T10:26:57.326Z,54.00
2023-04-26T10:29:25.768Z,54.60
2023-04-26T10:32:04.491Z,54.40
2023-04-26T10:34:37.000Z,54.30
2023-04-26T10:37:21.794Z,53.60
2023-04-26T10:39:48.807Z,54.10
2023-04-26T10:42:27.574Z,54.60
2023-04-26T10:45:21.924Z,54.40
2023-04-26T10:47:48.658Z,54.60
2023-04-26T10:50:15.555Z,54.60
2023-04-26T10:53:02.502Z,54.30
2023-04-26T10:55:39.967Z,54.20
2023-04-26T10:58:26.633Z,54.00
2023-04-26T11:01:07.155Z,54.40
2023-04-26T11:03:34.576Z,53.70
2023-04-26T11:06:07.127Z,52.80
2023-04-26T11:08:35.491Z,53.60
2023-04-26T11:11:08.915Z,53.50
2023-04-26T11:13:38.517Z,53.50
2023-04-26T11:16:09.866Z,53.70
2023-04-26T11:18:39.331Z,53.30
2023-04-26T11:21:06.988Z,52.60
2023-04-26T11:23:34.157Z,51.30
2023-04-26T11:26:05.348Z,52.30
2023-04-26T11:28:34.263Z,52.40
2023-04-26T11:31:02.882Z,51.80
2023-04-26T11:33:29.607Z,50.00
2023-04-26T11:35:58.061Z,51.50
2023-04-26T11:38:26.696Z,51.30
2023-04-26T11:40:56.956Z,47.00
2023-04-26T11:43:32.373Z,48.90
2023-04-26T11:46:01.359Z,48.30
2023-04-26T11:48:29.496Z,48.40
2023-04-26T11:50:59.719Z,48.20
2023-04-26T11:53:39.044Z,48.50
2023-04-26T11:56:15.629Z,47.70
2023-04-26T11:58:45.714Z,48.40
2023-04-26T12:01:12.364Z,48.90
2023-04-26T12:03:39.750Z,49.30
2023-04-26T12:06:06.900Z,50.10
2023-04-26T12:08:34.028Z,50.50
2023-04-26T12:11:02.675Z,51.30
2023-04-26T12:13:29.945Z,51.20
2023-04-26T12:15:56.804Z,51.50
2023-04-26T12:18:30.664Z,51.00
2023-04-26T12:21:01.646Z,50.90
2023-04-26T12:23:37.875Z,50.40
2023-04-26T12:26:04.813Z,51.50
2023-04-26T12:28:31.401Z,49.40
2023-04-26T12:30:58.086Z,50.00
2023-04-26T12:33:25.273Z,50.80
2023-04-26T12:35:52.234Z,50.60
2023-04-26T12:38:19.763Z,51.10
2023-04-26T12:40:46.904Z,50.00
2023-04-26T12:43:13.679Z,51.60
2023-04-26T12:45:40.573Z,50.20
2023-04-26T12:48:07.919Z,50.30
2023-04-26T12:50:34.621Z,50.00
2023-04-26T12:53:01.344Z,49.90
2023-04-26T12:55:28.986Z,49.20
2023-04-26T12:57:57.191Z,49.40
2023-04-26T13:00:23.925Z,50.00
2023-04-26T13:02:50.853Z,50.40
2023-04-26T13:05:17.597Z,50.50
2023-04-26T13:07:44.746Z,49.80
2023-04-26T13:10:13.153Z,48.90
2023-04-26T13:12:40.277Z,48.40
2023-04-26T13:15:08.764Z,49.10
2023-04-26T13:17:37.416Z,49.80
2023-04-26T13:20:07.942Z,49.10
2023-04-26T13:22:34.652Z,49.40
2023-04-26T13:25:01.424Z,48.60
2023-04-26T13:27:31.165Z,49.10
2023-04-26T13:29:58.428Z,46.30
2023-04-26T13:32:25.076Z,46.60
2023-04-26T13:34:51.836Z,47.30
2023-04-26T13:37:26.600Z,48.20
2023-04-26T13:39:54.192Z,47.20
2023-04-26T13:42:21.208Z,47.20
2023-04-26T13:44:47.858Z,48.20
2023-04-26T13:47:14.457Z,47.60
2023-04-26T13:49:41.834Z,48.00
2023-04-26T13:52:08.840Z,47.20
2023-04-26T13:54:36.710Z,48.20
2023-04-26T13:57:03.863Z,44.60
2023-04-26T13:59:30.507Z,44.30
2023-04-26T14:01:58.910Z,44.30
2023-04-26T14:04:26.270Z,43.40
2023-04-26T14:06:53.573Z,42.70
2023-04-26T14:09:20.363Z,41.20
2023-04-26T14:11:49.439Z,43.40
2023-04-26T14:14:24.264Z,43.40
2023-04-26T14:16:51.004Z,43.90
2023-04-26T14:19:17.766Z,44.50
2023-04-26T14:21:44.471Z,44.80
2023-04-26T14:24:11.575Z,44.40
2023-04-26T14:26:38.320Z,44.10
2023-04-26T14:29:05.203Z,45.40
2023-04-26T14:31:32.495Z,46.00
2023-04-26T14:33:59.309Z,44.90
2023-04-26T14:36:26.299Z,45.00
2023-04-26T14:38:52.921Z,46.20
2023-04-26T14:41:19.701Z,46.30
2023-04-26T14:43:47.364Z,46.40
2023-04-26T14:46:14.686Z,47.00
2023-04-26T14:48:43.589Z,46.00
2023-04-26T14:51:10.404Z,46.30
2023-04-26T14:53:37.228Z,46.30
2023-04-26T14:56:06.027Z,46.50
2023-04-26T14:58:32.949Z,46.20
2023-04-26T15:00:59.589Z,46.20
2023-04-26T15:03:27.040Z,47.40
2023-04-26T15:05:53.800Z,46.10
2023-04-26T15:08:20.651Z,46.50
2023-04-26T15:10:47.256Z,46.60
2023-04-26T15:13:13.894Z,46.30
2023-04-26T15:15:40.554Z,47.40
2023-04-26T15:18:07.241Z,48.00
2023-04-26T15:20:33.945Z,47.00
2023-04-26T15:23:00.698Z,46.80
2023-04-26T15:25:27.436Z,47.80
2023-04-26T15:27:54.154Z,47.20
2023-04-26T15:30:21.259Z,47.90
2023-04-26T15:32:49.365Z,47.50
2023-04-26T15:35:16.751Z,47.30
2023-04-26T15:37:44.165Z,47.70
2023-04-26T15:40:12.044Z,47.20
2023-04-26T15:42:39.262Z,47.80
2023-04-26T15:45:06.598Z,47.90
2023-04-26T15:47:34.915Z,47.40
2023-04-26T15:50:05.478Z,47.50
2023-04-26T15:52:38.521Z,45.50
2023-04-26T15:55:09.900Z,46.60
2023-04-26T15:57:36.749Z,47.00
2023-04-26T16:00:05.886Z,46.70
2023-04-26T16:02:32.678Z,47.20
2023-04-26T16:04:59.613Z,47.40
2023-04-26T16:07:26.520Z,47.40
2023-04-26T16:09:53.195Z,47.60
2023-04-26T16:12:19.903Z,47.60
2023-04-26T16:14:46.846Z,47.20
2023-04-26T16:17:13.635Z,46.90
2023-04-26T16:19:40.403Z,47.50
2023-04-26T16:22:07.094Z,47.20
2023-04-26T16:24:33.824Z,48.40
2023-04-26T16:27:01.018Z,49.10
2023-04-26T16:29:27.887Z,49.00
2023-04-26T16:31:54.533Z,48.90
2023-04-26T16:34:21.896Z,48.70
2023-04-26T16:36:48.643Z,48.70
2023-04-26T16:39:16.249Z,48.90
2023-04-26T16:41:43.403Z,48.50
2023-04-26T16:44:10.128Z,48.30
2023-04-26T16:46:37.260Z,48.50
2023-04-26T16:49:09.442Z,48.40
2023-04-26T16:51:37.938Z,48.50
2023-04-26T16:54:04.907Z,49.00
2023-04-26T16:56:32.286Z,48.80
2023-04-26T16:58:59.763Z,49.20
2023-04-26T17:01:26.792Z,48.90
2023-04-26T17:03:54.280Z,48.00
2023-04-26T17:06:21.242Z,49.00
2023-04-26T17:08:48.054Z,49.20
2023-04-26T17:11:16.209Z,49.40
2023-04-26T17:13:43.409Z,49.50
2023-04-26T17:16:10.206Z,49.50
2023-04-26T17:18:37.320Z,49.60
2023-04-26T17:21:04.997Z,49.60
2023-04-26T17:23:33.488Z,49.60
2023-04-26T17:26:01.082Z,50.00
2023-04-26T17:28:27.990Z,50.00
2023-04-26T17:30:54.644Z,49.40
2023-04-26T17:33:21.536Z,49.80
2023-04-26T17:35:48.257Z,49.90
2023-04-26T17:38:15.021Z,49.90
2023-04-26T17:40:41.814Z,49.80
2023-04-26T17:43:08.542Z,50.00
2023-04-26T17:45:35.177Z,49.70
2023-04-26T17:48:01.843Z,49.50
2023-04-26T17:50:30.142Z,49.70
2023-04-26T17:52:56.777Z,49.70
2023-04-26T17:55:24.468Z,50.00
2023-04-26T17:57:51.270Z,50.40
2023-04-26T18:00:18.495Z,50.40
2023-04-26T18:02:45.315Z,51.00
2023-04-26T18:05:13.230Z,51.50
2023-04-26T18:07:40.034Z,51.80
2023-04-26T18:10:07.423Z,51.80
2023-04-26T18:12:34.373Z,52.00
2023-04-26T18:15:01.030Z,51.90
2023-04-26T18:17:27.951Z,52.40
2023-04-26T18:19:54.663Z,52.90
2023-04-26T18:22:21.359Z,53.90
2023-04-26T18:24:48.070Z,53.80
2023-04-26T18:27:14.792Z,53.80
2023-04-26T18:29:41.651Z,54.00
2023-04-26T18:32:08.491Z,53.90
2023-04-26T18:34:35.432Z,54.20
2023-04-26T18:37:02.104Z,54.20
2023-04-26T18:39:28.840Z,54.50
2023-04-26T18:41:55.622Z,55.40
2023-04-26T18:44:22.284Z,55.00
2023-04-26T18:46:49.119Z,55.90
2023-04-26T18:49:16.314Z,55.60
2023-04-26T18:51:43.823Z,55.90
2023-04-26T18:54:10.642Z,56.20
2023-04-26T18:56:37.467Z,56.00
2023-04-26T18:59:04.121Z,56.50
2023-04-26T19:01:30.847Z,56.60
2023-04-26T19:03:57.621Z,57.50
2023-04-26T19:06:24.451Z,57.10
2023-04-26T19:08:51.540Z,56.90
2023-04-26T19:11:18.235Z,57.20
2023-04-26T19:13:44.937Z,57.30
2023-04-26T19:16:11.792Z,57.30
2023-04-26T19:18:40.695Z,57.10
2023-04-26T19:21:08.449Z,57.20
2023-04-26T19:23:36.252Z,57.50
2023-04-26T19:26:08.064Z,57.70
2023-04-26T19:28:34.936Z,57.70
2023-04-26T19:31:01.818Z,58.00
2023-04-26T19:33:28.890Z,58.20
2023-04-26T19:35:58.426Z,58.30
2023-04-26T19:38:25.682Z,58.50
2023-04-26T19:40:52.957Z,58.50
2023-04-26T19:43:20.032Z,58.70
2023-04-26T19:45:46.988Z,58.90
2023-04-26T19:48:13.777Z,59.20
2023-04-26T19:50:45.492Z,59.20
2023-04-26T19:53:13.406Z,59.30
2023-04-26T19:55:42.138Z,60.20
2023-04-26T19:58:10.616Z,60.20
2023-04-26T20:00:38.775Z,60.30
2023-04-26T20:03:06.110Z,60.60
2023-04-26T20:05:33.558Z,60.70
2023-04-26T20:08:00.742Z,61.00
2023-04-26T20:10:30.951Z,61.10
2023-04-26T20:12:57.737Z,61.20
2023-04-26T20:15:24.526Z,61.30
2023-04-26T20:17:51.352Z,61.70
2023-04-26T20:20:18.390Z,61.90
2023-04-26T20:22:45.027Z,62.00
2023-04-26T20:25:12.560Z,62.20
2023-04-26T20:27:39.244Z,62.40
2023-04-26T20:30:07.102Z,63.10
2023-04-26T20:32:33.782Z,62.90
2023-04-26T20:35:00.612Z,63.10
2023-04-26T20:37:27.264Z,63.30
2023-04-26T20:39:54.087Z,63.70
2023-04-26T20:42:21.953Z,63.80
2023-04-26T20:44:48.593Z,63.90
2023-04-26T20:47:15.613Z,64.00
2023-04-26T20:49:42.368Z,64.20
2023-04-26T20:52:09.071Z,64.30
2023-04-26T20:54:35.816Z,64.50
2023-04-26T20:57:03.809Z,64.50
2023-04-26T20:59:30.817Z,65.00
2023-04-26T21:01:57.692Z,65.00
2023-04-26T21:04:24.793Z,65.60
2023-04-26T21:06:51.660Z,65.70
2023-04-26T21:09:18.321Z,65.70
2023-04-26T21:11:45.019Z,65.60
2023-04-26T21:14:13.649Z,65.80
2023-04-26T21:16:40.605Z,66.20
2023-04-26T21:19:08.046Z,66.40
2023-04-26T21:21:35.163Z,66.20
2023-04-26T21:24:02.403Z,67.50
2023-04-26T21:26:29.163Z,67.10
2023-04-26T21:28:55.965Z,67.10
2023-04-26T21:31:22.748Z,67.30
2023-04-26T21:33:49.516Z,67.60
2023-04-26T21:36:16.334Z,67.40
2023-04-26T21:38:43.025Z,67.50
2023-04-26T21:41:10.044Z,67.40
2023-04-26T21:43:36.719Z,67.70
2023-04-26T21:46:03.389Z,67.60
2023-04-26T21:48:30.040Z,67.70
2023-04-26T21:50:56.947Z,68.10
2023-04-26T21:53:23.607Z,68.00
2023-04-26T21:55:52.471Z,68.00
2023-04-26T21:58:20.113Z,68.10
2023-04-26T22:00:46.790Z,68.20
2023-04-26T22:03:13.928Z,68.50
2023-04-26T22:05:41.004Z,68.50
2023-04-26T22:08:07.664Z,68.60
2023-04-26T22:10:34.657Z,68.60
2023-04-26T22:13:01.378Z,68.50
2023-04-26T22:15:28.292Z,68.60
2023-04-26T22:17:55.015Z,68.70
2023-04-26T22:20:21.786Z,69.20
2023-04-26T22:22:48.692Z,68.70
2023-04-26T22:25:15.462Z,68.90
2023-04-26T22:27:42.134Z,69.10
2023-04-26T22:30:23.170Z,69.10
2023-04-26T22:32:54.195Z,69.30
2023-04-26T22:35:21.918Z,69.60
2023-04-26T22:37:48.787Z,69.70
2023-04-26T22:40:16.228Z,69.70
2023-04-26T22:42:43.261Z,69.70
2023-04-26T22:45:11.101Z,69.90
2023-04-26T22:47:38.453Z,70.10
2023-04-26T22:50:06.070Z,70.40
2023-04-26T22:52:32.784Z,70.20
2023-04-26T22:55:02.469Z,70.20
2023-04-26T22:57:29.763Z,70.30
2023-04-26T22:59:56.653Z,70.60
2023-04-26T23:02:23.726Z,70.70
2023-04-26T23:04:50.609Z,70.90
2023-04-26T23:07:17.461Z,71.00
2023-04-26T23:09:44.215Z,70.80
2023-04-26T23:12:11.330Z,70.80
2023-04-26T23:14:38.029Z,71.80
2023-04-26T23:17:05.647Z,70.90
2023-04-26T23:19:33.042Z,70.80
2023-04-26T23:21:59.873Z,70.80
2023-04-26T23:24:26.759Z,70.90
2023-04-26T23:26:53.484Z,70.80
2023-04-26T23:29:20.200Z,71.00
2023-04-26T23:31:46.938Z,71.00
2023-04-26T23:34:13.588Z,70.80
2023-04-26T23:36:40.334Z,71.20
2023-04-26T23:39:07.198Z,71.20
2023-04-26T23:41:33.829Z,71.20
2023-04-26T23:44:00.684Z,71.10
2023-04-26T23:46:27.285Z,71.30
2023-04-26T23:48:54.028Z,71.40
2023-04-26T23:51:20.880Z,71.50
2023-04-26T23:53:47.608Z,71.80
2023-04-26T23:56:14.223Z,71.80
2023-04-26T23:58:41.062Z,72.00
